createdAt,value
2022-09-28T00:01:06.891Z,1.00
2022-09-28T00:05:09.050Z,0.83
2022-09-28T00:09:10.830Z,1.40
2022-09-28T00:13:12.587Z,1.40
2022-09-28T00:17:16.865Z,1.30
2022-09-28T00:21:24.465Z,1.40
2022-09-28T00:25:26.339Z,0.80
2022-09-28T00:29:33.340Z,1.10
2022-09-28T00:33:35.073Z,0.87
2022-09-28T00:37:37.183Z,1.00
2022-09-28T00:41:38.983Z,0.90
2022-09-28T00:45:40.703Z,0.77
2022-09-28T00:49:53.650Z,0.80
2022-09-28T00:53:56.209Z,0.80
2022-09-28T00:57:58.628Z,0.80
2022-09-28T01:02:01.717Z,0.83
2022-09-28T01:06:04.414Z,0.80
2022-09-28T01:10:06.956Z,0.70
2022-09-28T01:14:15.042Z,0.70
2022-09-28T01:18:22.749Z,0.70
2022-09-28T01:23:13.365Z,0.83
2022-09-28T01:27:34.272Z,0.73
2022-09-28T01:31:36.055Z,0.90
2022-09-28T01:35:43.310Z,0.50
2022-09-28T01:39:47.145Z,0.60
2022-09-28T01:43:53.652Z,0.70
2022-09-28T01:48:01.880Z,0.70
2022-09-28T01:52:11.389Z,0.70
2022-09-28T01:56:38.224Z,0.80
2022-09-28T02:00:48.486Z,1.63
2022-09-28T02:05:20.451Z,2.30
2022-09-28T02:09:45.414Z,2.30
2022-09-28T02:13:56.419Z,1.40
2022-09-28T02:18:04.458Z,2.27
2022-09-28T02:22:17.017Z,1.93
2022-09-28T02:26:19.142Z,1.40
2022-09-28T02:30:20.964Z,1.60
2022-09-28T02:34:23.070Z,1.37
2022-09-28T02:38:24.801Z,1.40
2022-09-28T02:42:46.418Z,1.20
2022-09-28T02:47:04.700Z,1.43
2022-09-28T02:51:34.633Z,1.37
2022-09-28T02:55:56.670Z,0.90
2022-09-28T03:00:10.677Z,1.20
2022-09-28T03:05:17.707Z,1.33
2022-09-28T03:09:34.084Z,1.03
2022-09-28T03:13:36.032Z,1.43
2022-09-28T03:17:40.342Z,1.10
2022-09-28T03:21:42.429Z,1.30
2022-09-28T03:25:44.417Z,1.60
2022-09-28T03:29:46.302Z,1.30
2022-09-28T03:33:51.434Z,1.37
2022-09-28T03:37:56.822Z,1.03
2022-09-28T03:42:01.111Z,1.30
2022-09-28T03:46:03.210Z,1.40
2022-09-28T03:50:11.432Z,1.80
2022-09-28T03:54:17.938Z,1.57
2022-09-28T03:58:25.702Z,1.20
2022-09-28T04:02:27.599Z,1.23
2022-09-28T04:06:29.735Z,0.83
2022-09-28T04:10:31.605Z,0.80
2022-09-28T04:15:17.754Z,0.93
2022-09-28T04:19:26.624Z,1.20
2022-09-28T04:23:35.619Z,0.90
2022-09-28T04:27:56.509Z,0.90
2022-09-28T04:32:07.868Z,1.17
2022-09-28T04:36:11.154Z,1.30
2022-09-28T04:40:13.208Z,1.20
2022-09-28T04:44:17.947Z,1.40
2022-09-28T04:48:19.991Z,1.20
2022-09-28T04:52:24.842Z,1.23
2022-09-28T04:56:37.729Z,1.40
2022-09-28T05:01:03.345Z,1.80
2022-09-28T05:05:10.801Z,1.90
2022-09-28T05:09:14.822Z,1.87
2022-09-28T05:13:18.771Z,1.60
2022-09-28T05:17:20.746Z,1.70
2022-09-28T05:21:25.246Z,1.57
2022-09-28T05:25:27.252Z,1.47
2022-09-28T05:29:32.541Z,1.60
2022-09-28T05:33:43.272Z,1.47
2022-09-28T05:37:45.450Z,1.60
2022-09-28T05:42:11.481Z,1.60
2022-09-28T05:47:06.856Z,1.30
2022-09-28T05:51:17.424Z,1.47
2022-09-28T05:55:31.116Z,3.20
2022-09-28T05:59:38.145Z,1.90
2022-09-28T06:03:39.995Z,2.30
2022-09-28T06:07:42.893Z,2.27
2022-09-28T06:11:44.749Z,2.40
2022-09-28T06:15:46.657Z,2.73
2022-09-28T06:19:48.432Z,2.83
2022-09-28T06:28:20.280Z,3.67
2022-09-28T06:32:22.353Z,3.80
2022-09-28T06:47:20.487Z,4.70
2022-09-28T07:09:26.768Z,6.30
2022-09-28T07:13:58.297Z,6.67
2022-09-28T07:18:32.154Z,6.30
2022-09-28T07:23:18.642Z,7.07
2022-09-28T07:27:28.146Z,6.57
2022-09-28T07:32:52.597Z,7.00
2022-09-28T07:36:57.618Z,6.10
2022-09-28T07:51:19.876Z,6.10
2022-09-28T08:01:16.131Z,5.73
2022-09-28T08:05:20.621Z,6.50
2022-09-28T08:22:03.820Z,6.23
2022-09-28T08:27:55.058Z,6.10
2022-09-28T08:33:14.512Z,6.20
2022-09-28T08:38:05.458Z,5.57
2022-09-28T08:53:48.091Z,2.97
2022-09-28T08:58:26.236Z,3.00
2022-09-28T09:15:22.165Z,2.20
2022-09-28T09:55:42.001Z,1.10
2022-09-28T10:00:07.649Z,1.40
2022-09-28T10:04:48.550Z,1.70
2022-09-28T10:14:21.966Z,1.40
2022-09-28T10:18:34.277Z,1.40
2022-09-28T10:23:15.117Z,1.70
2022-09-28T10:29:02.897Z,1.57
2022-09-28T10:39:57.760Z,1.53
2022-09-28T11:23:27.781Z,2.70
2022-09-28T11:33:35.823Z,2.50
2022-09-28T11:37:56.356Z,2.80
2022-09-28T11:42:16.367Z,2.60
2022-09-28T11:47:00.960Z,2.40
2022-09-28T11:51:09.606Z,2.00
2022-09-28T11:55:30.098Z,2.13
2022-09-28T12:00:10.865Z,1.70
2022-09-28T12:04:18.519Z,1.17
2022-09-28T12:08:27.422Z,1.30
2022-09-28T12:12:54.562Z,1.13
2022-09-28T12:17:25.167Z,0.80
2022-09-28T12:21:48.793Z,0.80
2022-09-28T12:26:03.182Z,0.80
2022-09-28T12:30:21.254Z,0.80
2022-09-28T12:34:23.274Z,1.00
2022-09-28T12:39:18.085Z,1.00
2022-09-28T12:44:07.554Z,1.20
2022-09-28T12:48:19.912Z,1.20
2022-09-28T12:52:44.450Z,1.20
2022-09-28T12:57:02.942Z,0.90
2022-09-28T13:01:17.175Z,0.70
2022-09-28T13:05:44.364Z,0.77
2022-09-28T13:09:57.919Z,0.70
2022-09-28T13:14:45.450Z,0.70
2022-09-28T13:19:02.393Z,0.60
2022-09-28T13:23:21.250Z,0.63
2022-09-28T13:27:32.376Z,0.40
2022-09-28T13:31:40.302Z,0.30
2022-09-28T13:36:28.605Z,0.40
2022-09-28T13:41:06.059Z,0.47
2022-09-28T13:45:20.495Z,0.73
2022-09-28T13:49:31.421Z,0.60
2022-09-28T13:54:24.487Z,0.63
2022-09-28T13:58:51.631Z,0.47
2022-09-28T14:03:06.415Z,0.77
2022-09-28T14:07:25.384Z,0.87
2022-09-28T14:11:30.678Z,1.00
2022-09-28T14:15:44.592Z,1.20
2022-09-28T14:20:11.272Z,0.80
2022-09-28T14:24:39.551Z,0.73
2022-09-28T14:33:39.473Z,0.90
2022-09-28T14:38:01.789Z,0.70
2022-09-28T14:42:13.693Z,0.80
2022-09-28T14:46:21.924Z,0.80
2022-09-28T14:50:30.005Z,0.50
2022-09-28T14:54:52.483Z,0.90
2022-09-28T14:59:11.580Z,0.60
2022-09-28T15:04:07.998Z,0.40
2022-09-28T15:09:43.538Z,0.70
2022-09-28T15:15:43.484Z,0.90
2022-09-28T15:37:42.806Z,1.03
2022-09-28T15:41:52.716Z,1.10
2022-09-28T15:46:22.205Z,1.30
2022-09-28T15:52:00.824Z,1.47
2022-09-28T19:10:35.718Z,4.30
2022-09-28T19:14:42.387Z,4.13
2022-09-28T19:18:50.361Z,3.83
2022-09-28T19:22:55.619Z,3.80
2022-09-28T19:27:00.760Z,3.53
2022-09-28T19:31:05.439Z,4.17
2022-09-28T19:35:10.720Z,4.37
2022-09-28T19:39:21.436Z,4.13
2022-09-28T19:43:34.881Z,4.20
2022-09-28T19:47:37.573Z,4.03
2022-09-28T19:51:47.193Z,4.10
2022-09-28T19:56:03.381Z,3.23
2022-09-28T20:00:06.260Z,3.97
2022-09-28T20:04:08.285Z,3.80
2022-09-28T20:08:10.226Z,4.03
2022-09-28T20:12:21.540Z,4.00
2022-09-28T20:16:24.767Z,3.83
2022-09-28T20:20:26.963Z,4.10
2022-09-28T20:24:31.681Z,3.70
2022-09-28T20:28:34.075Z,3.80
2022-09-28T20:32:36.054Z,3.60
2022-09-28T20:36:43.742Z,3.83
2022-09-28T20:40:46.745Z,4.27
2022-09-28T20:44:50.153Z,4.70
2022-09-28T20:48:52.293Z,4.10
2022-09-28T20:52:54.182Z,4.47
2022-09-28T20:57:00.726Z,4.67
2022-09-28T21:01:03.759Z,4.23
2022-09-28T21:05:06.975Z,5.20
2022-09-28T21:09:10.122Z,4.53
2022-09-28T21:13:12.289Z,4.53
2022-09-28T21:17:14.213Z,5.03
2022-09-28T21:21:18.158Z,4.47
2022-09-28T21:25:22.733Z,4.43
2022-09-28T21:29:24.755Z,4.50
2022-09-28T21:33:26.620Z,4.63
2022-09-28T21:37:28.453Z,3.80
2022-09-28T21:41:30.330Z,4.20
2022-09-28T21:45:33.575Z,3.87
2022-09-28T21:49:35.814Z,3.67
2022-09-28T21:53:38.288Z,3.63
2022-09-28T21:57:40.171Z,3.50
2022-09-28T22:01:42.897Z,3.93
2022-09-28T22:05:44.963Z,3.70
2022-09-28T22:09:49.453Z,5.50
2022-09-28T22:13:59.513Z,5.53
2022-09-28T22:18:01.503Z,5.60
2022-09-28T22:22:03.349Z,5.30
2022-09-28T22:26:18.050Z,5.70
2022-09-28T22:30:19.995Z,5.53
2022-09-28T22:34:21.778Z,5.70
2022-09-28T22:38:24.498Z,5.70
2022-09-28T22:42:26.362Z,4.90
2022-09-28T22:46:29.432Z,5.33
2022-09-28T22:50:31.721Z,5.03
2022-09-28T22:54:33.723Z,5.13
2022-09-28T22:58:35.964Z,4.57
2022-09-28T23:02:37.807Z,4.80
2022-09-28T23:06:39.679Z,4.90
2022-09-28T23:10:42.059Z,5.50
2022-09-28T23:14:43.973Z,5.83
2022-09-28T23:18:46.159Z,5.23
2022-09-28T23:22:48.701Z,4.90
2022-09-28T23:26:50.974Z,4.93
2022-09-28T23:30:53.419Z,4.27
2022-09-28T23:34:55.384Z,4.60
2022-09-28T23:38:57.286Z,4.17
2022-09-28T23:42:59.157Z,4.50
2022-09-28T23:47:01.126Z,3.90
2022-09-28T23:51:03.409Z,4.07
2022-09-28T23:55:05.942Z,4.50
2022-09-28T23:59:07.855Z,4.93
